Time;durP1;ratioP1;P1;durP2;ratioP2;P2;SDS_P1;SDS_P2;PMS_P1;PMS_P2;Temp;Humidity;BMP_temperature;BMP_pressure;BME280_temperature;BME280_humidity;BME280_pressure;Samples;Min_cycle;Max_cycle;Signal;HPM_P1;HPM_P2
2022/01/18 00:01:11;;;;;;;1.77;1.15;;;19.30;48.60;;;;;;6196530;28;20424;-73
2022/01/18 00:04:12;;;;;;;1.88;0.93;;;19.30;48.60;;;;;;6197266;28;20031;-72
2022/01/18 00:07:13;;;;;;;1.52;1.05;;;19.30;48.60;;;;;;6197712;28;20113;-73
2022/01/18 00:10:14;;;;;;;2.97;1.30;;;19.30;48.60;;;;;;6198045;28;20039;-72
2022/01/18 00:13:38;;;;;;;3.58;1.17;;;19.30;48.60;;;;;;6197707;28;20472;-74
2022/01/18 00:17:00;;;;;;;2.75;1.13;;;19.30;48.60;;;;;;6197395;28;20642;-73
2022/01/18 00:19:59;;;;;;;2.88;1.40;;;19.30;48.60;;;;;;6197563;28;20026;-72
2022/01/18 00:22:59;;;;;;;2.53;1.40;;;19.30;48.60;;;;;;6197002;28;20077;-72
2022/01/18 00:26:00;;;;;;;1.67;1.00;;;19.30;48.60;;;;;;6197430;28;20042;-73
2022/01/18 00:29:09;;;;;;;3.20;1.20;;;19.30;48.60;;;;;;6197309;28;20105;-73
2022/01/18 00:32:36;;;;;;;3.33;1.50;;;19.30;48.60;;;;;;6197093;28;20026;-73
2022/01/18 00:35:40;;;;;;;2.72;1.08;;;19.30;48.60;;;;;;6197294;28;20389;-74
2022/01/18 00:38:47;;;;;;;2.53;1.10;;;19.30;48.70;;;;;;6197355;28;20173;-72
2022/01/18 00:41:48;;;;;;;2.88;1.25;;;19.30;48.60;;;;;;6197224;28;20041;-74
2022/01/18 00:44:48;;;;;;;2.50;1.00;;;19.30;48.60;;;;;;6197351;28;20018;-73
2022/01/18 00:47:49;;;;;;;2.08;1.13;;;19.30;48.60;;;;;;6194934;28;20065;-73
2022/01/18 00:50:49;;;;;;;4.00;1.20;;;19.30;48.60;;;;;;6196664;28;20476;-73
2022/01/18 00:53:50;;;;;;;2.42;1.40;;;19.30;48.60;;;;;;6177300;28;20045;-72
2022/01/18 00:56:53;;;;;;;3.25;1.35;;;19.30;48.70;;;;;;6172274;28;20030;-72
2022/01/18 00:59:53;;;;;;;2.47;1.20;;;19.30;48.60;;;;;;6172824;28;20026;-73
2022/01/18 01:02:54;;;;;;;2.58;1.25;;;19.30;48.70;;;;;;6173670;28;20121;-73
2022/01/18 01:05:55;;;;;;;1.73;0.95;;;19.30;48.60;;;;;;6172181;28;20046;-73
2022/01/18 01:08:56;;;;;;;2.72;1.23;;;19.30;48.60;;;;;;6172183;28;20066;-73
2022/01/18 01:11:56;;;;;;;4.50;1.30;;;19.30;48.60;;;;;;6172068;28;20031;-74
2022/01/18 01:15:10;;;;;;;3.70;1.45;;;19.30;48.60;;;;;;6171682;28;20037;-73
2022/01/18 01:18:31;;;;;;;2.15;1.05;;;19.30;48.70;;;;;;6172662;28;20023;-73
2022/01/18 01:44:47;;;;;;;3.33;1.25;;;19.20;48.60;;;;;;6195771;28;20078;-73
2022/01/18 01:47:51;;;;;;;4.03;1.20;;;19.20;48.60;;;;;;6195701;28;20029;-73
2022/01/18 01:51:02;;;;;;;3.63;0.93;;;19.20;48.60;;;;;;6195194;28;20081;-73
2022/01/18 01:54:06;;;;;;;3.38;1.10;;;19.20;48.60;;;;;;6195346;28;20045;-72
2022/01/18 01:57:09;;;;;;;3.33;1.00;;;19.20;48.60;;;;;;6195273;28;20030;-73
2022/01/18 02:00:14;;;;;;;3.13;1.20;;;19.20;48.60;;;;;;6195205;28;20066;-73
2022/01/18 02:03:14;;;;;;;1.85;0.98;;;19.20;48.60;;;;;;6195263;28;20029;-74
2022/01/18 02:06:17;;;;;;;2.67;1.20;;;19.20;48.60;;;;;;6194790;28;20046;-73
2022/01/18 02:09:18;;;;;;;2.47;1.00;;;19.20;48.50;;;;;;6194984;28;20058;-72
2022/01/18 02:12:19;;;;;;;2.95;1.33;;;19.20;48.60;;;;;;6195061;28;20065;-72
2022/01/18 02:15:20;;;;;;;2.88;1.08;;;19.20;48.60;;;;;;6194948;28;20081;-73
2022/01/18 02:21:46;;;;;;;1.60;1.00;;;19.20;48.60;;;;;;6194202;28;20030;-73
2022/01/18 02:24:47;;;;;;;4.30;1.20;;;19.20;48.60;;;;;;6194696;28;20491;-74
2022/01/18 02:27:47;;;;;;;2.72;1.20;;;19.20;48.70;;;;;;6194255;28;20026;-73
2022/01/18 02:30:48;;;;;;;2.03;1.17;;;19.20;48.70;;;;;;6194687;28;20508;-73
2022/01/18 02:33:49;;;;;;;2.97;1.05;;;19.30;48.70;;;;;;6194128;28;20027;-73
2022/01/18 02:36:54;;;;;;;2.75;1.30;;;19.20;48.60;;;;;;6194588;28;20041;-73
2022/01/18 02:39:54;;;;;;;2.88;1.13;;;19.20;48.70;;;;;;6194437;28;20062;-73
2022/01/18 02:42:59;;;;;;;3.20;1.27;;;19.20;48.60;;;;;;6194341;28;20436;-73
2022/01/18 02:46:00;;;;;;;2.40;1.10;;;19.20;48.60;;;;;;6194282;28;20035;-73
2022/01/18 02:49:02;;;;;;;3.70;1.35;;;19.20;48.70;;;;;;6194588;28;20420;-73
2022/01/18 02:52:03;;;;;;;2.55;1.38;;;19.20;48.60;;;;;;6190117;28;20113;-73
2022/01/18 02:55:04;;;;;;;1.83;1.02;;;19.20;48.60;;;;;;6170257;28;20085;-73
2022/01/18 02:58:09;;;;;;;2.13;1.08;;;19.20;48.70;;;;;;6169803;28;20027;-73
2022/01/18 03:04:50;;;;;;;2.38;1.20;;;19.20;48.70;;;;;;6142750;29;20563;-73
2022/01/18 03:07:50;;;;;;;2.25;1.02;;;19.20;48.70;;;;;;6139787;29;20039;-72
2022/01/18 03:10:51;;;;;;;2.38;1.20;;;19.20;48.60;;;;;;6168169;28;20486;-74
2022/01/18 03:13:51;;;;;;;3.25;1.40;;;19.20;48.50;;;;;;6169867;28;20417;-73
2022/01/18 03:16:52;;;;;;;1.75;0.93;;;19.20;48.60;;;;;;6169697;28;20027;-73
2022/01/18 03:19:52;;;;;;;3.20;1.45;;;19.20;48.60;;;;;;6170064;28;20462;-73
2022/01/18 03:22:53;;;;;;;3.03;1.08;;;19.20;48.60;;;;;;6169604;28;20030;-72
2022/01/18 03:26:00;;;;;;;2.75;1.35;;;19.20;48.60;;;;;;6170642;28;20477;-73
2022/01/18 03:29:00;;;;;;;4.30;1.35;;;19.20;48.60;;;;;;6193221;28;20095;-73
2022/01/18 03:32:02;;;;;;;3.55;1.20;;;19.20;48.60;;;;;;6193667;28;20027;-73
2022/01/18 03:35:05;;;;;;;1.85;0.90;;;19.20;48.60;;;;;;6197152;28;20018;-73
2022/01/18 03:38:06;;;;;;;3.63;1.30;;;19.20;48.70;;;;;;6198725;28;20441;-73
2022/01/18 03:41:07;;;;;;;2.28;0.90;;;19.20;48.70;;;;;;6198412;28;20030;-73
2022/01/18 03:44:07;;;;;;;3.00;0.98;;;19.20;48.60;;;;;;6198645;28;20465;-73
2022/01/18 03:47:08;;;;;;;1.50;1.10;;;19.20;48.70;;;;;;6198360;28;20493;-73
2022/01/18 03:50:10;;;;;;;2.20;1.17;;;19.20;48.60;;;;;;6198301;28;20519;-73
2022/01/18 03:53:11;;;;;;;1.88;1.00;;;19.20;48.60;;;;;;6185176;28;20022;-73
2022/01/18 03:56:12;;;;;;;3.60;1.30;;;19.20;48.60;;;;;;6174710;28;20050;-73
2022/01/18 04:03:09;;;;;;;;;;;19.20;48.60;;;;;;6174957;28;20034;-73
2022/01/18 04:06:10;;;;;;;1.83;0.98;;;19.20;48.60;;;;;;6173611;28;19977;-73
2022/01/18 04:09:11;;;;;;;2.28;1.00;;;19.20;48.60;;;;;;6173713;28;20464;-73
2022/01/18 04:12:11;;;;;;;2.67;1.20;;;19.20;48.60;;;;;;6173236;28;20031;-73
2022/01/18 04:15:13;;;;;;;4.68;1.92;;;19.20;48.60;;;;;;6173862;28;20069;-74
2022/01/18 04:28:06;;;;;;;3.22;1.27;;;19.20;48.60;;;;;;6190816;28;20521;-73
2022/01/18 04:31:08;;;;;;;3.50;1.25;;;19.20;48.60;;;;;;6197238;28;20187;-73
2022/01/18 04:34:08;;;;;;;4.07;1.42;;;19.20;48.60;;;;;;6196893;28;20546;-73
2022/01/18 04:37:09;;;;;;;2.45;1.10;;;19.20;48.60;;;;;;6197142;28;20030;-73
2022/01/18 04:40:14;;;;;;;4.63;1.60;;;19.20;48.70;;;;;;6197102;28;20104;-73
2022/01/18 04:49:53;;;;;;;2.95;1.00;;;19.20;48.60;;;;;;6196897;28;20094;-73
2022/01/18 04:52:54;;;;;;;2.40;1.00;;;19.10;48.50;;;;;;6185531;28;20522;-73
2022/01/18 04:55:56;;;;;;;2.67;1.13;;;19.10;48.60;;;;;;6173290;28;20399;-73
2022/01/18 04:58:57;;;;;;;4.55;1.40;;;19.10;48.60;;;;;;6172550;28;20033;-73
2022/01/18 05:01:57;;;;;;;1.58;0.90;;;19.10;48.50;;;;;;6172604;28;20035;-73
2022/01/18 05:04:58;;;;;;;3.42;1.23;;;19.10;48.50;;;;;;6188356;28;20101;-74
2022/01/18 05:08:00;;;;;;;2.25;0.90;;;19.20;48.70;;;;;;6196922;28;20022;-73
2022/01/18 05:11:01;;;;;;;2.20;1.10;;;19.10;48.60;;;;;;6196360;28;20128;-73
2022/01/18 05:14:20;;;;;;;3.03;1.20;;;19.10;48.60;;;;;;6196321;28;20485;-73
2022/01/18 05:17:38;;;;;;;2.75;1.10;;;19.20;48.60;;;;;;6195993;28;20500;-73
2022/01/18 05:23:42;;;;;;;2.33;1.30;;;19.20;48.60;;;;;;6196611;28;20041;-73
2022/01/18 05:26:43;;;;;;;1.95;1.00;;;19.20;48.50;;;;;;6196380;28;20035;-73
2022/01/18 05:29:43;;;;;;;2.72;1.05;;;19.20;48.40;;;;;;6196456;28;20054;-74
2022/01/18 05:32:44;;;;;;;4.55;1.33;;;19.20;48.40;;;;;;6196013;28;20022;-74
2022/01/18 05:35:45;;;;;;;1.92;1.00;;;19.20;48.30;;;;;;6195754;28;20070;-73
2022/01/18 05:38:46;;;;;;;2.95;1.42;;;19.20;48.40;;;;;;6195817;28;20034;-73
2022/01/18 05:41:46;;;;;;;1.85;0.93;;;19.20;48.30;;;;;;6195586;28;20031;-73
2022/01/18 05:44:47;;;;;;;3.00;1.00;;;19.20;48.40;;;;;;6195860;28;20026;-73
2022/01/18 05:47:47;;;;;;;2.42;1.00;;;19.20;48.30;;;;;;6195547;28;20057;-73
2022/01/18 05:50:48;;;;;;;1.52;0.75;;;19.20;49.00;;;;;;6195463;28;20026;-73
2022/01/18 05:53:49;;;;;;;1.90;1.00;;;19.20;48.30;;;;;;6177544;28;20023;-73
2022/01/18 05:56:49;;;;;;;3.20;0.98;;;19.20;48.60;;;;;;6171827;28;20038;-73
2022/01/18 05:59:50;;;;;;;2.55;0.90;;;19.20;48.20;;;;;;6171282;28;20583;-74
2022/01/18 06:09:17;;;;;;;3.38;1.10;;;19.20;48.20;;;;;;6171080;28;20059;-75
2022/01/18 06:12:18;;;;;;;3.38;1.10;;;19.20;48.30;;;;;;6171799;28;20130;-73
2022/01/18 06:15:19;;;;;;;1.92;1.08;;;19.20;48.20;;;;;;6173301;28;20473;-73
2022/01/18 06:18:19;;;;;;;2.92;1.15;;;19.20;48.30;;;;;;6173015;28;20042;-73
2022/01/18 06:21:21;;;;;;;3.33;1.30;;;19.20;48.30;;;;;;6170471;28;20639;-73
2022/01/18 06:24:21;;;;;;;3.45;0.95;;;19.20;48.20;;;;;;6170334;28;20046;-73
2022/01/18 06:27:22;;;;;;;2.30;1.20;;;19.30;48.50;;;;;;6182884;28;20046;-73
2022/01/18 06:30:22;;;;;;;2.45;0.95;;;19.20;48.40;;;;;;6194123;28;20030;-73
2022/01/18 06:33:23;;;;;;;2.30;0.90;;;19.30;48.50;;;;;;6194474;28;20032;-73
2022/01/18 06:36:23;;;;;;;2.80;1.02;;;19.20;48.50;;;;;;6194408;28;20034;-73
2022/01/18 06:39:24;;;;;;;4.22;1.10;;;19.30;48.60;;;;;;6193975;28;20030;-73
2022/01/18 06:42:25;;;;;;;2.53;1.00;;;19.30;48.60;;;;;;6194411;28;20106;-73
2022/01/18 06:45:25;;;;;;;2.20;1.10;;;19.30;48.70;;;;;;6193012;28;20137;-73
2022/01/18 06:48:26;;;;;;;2.75;1.00;;;19.30;48.70;;;;;;6194152;28;20023;-73
2022/01/18 06:51:26;;;;;;;2.90;1.17;;;19.30;48.70;;;;;;6194140;28;20023;-74
2022/01/18 06:54:27;;;;;;;2.50;1.25;;;19.30;48.70;;;;;;6171004;28;20031;-73
2022/01/18 06:57:28;;;;;;;4.35;1.20;;;19.30;48.70;;;;;;6169958;28;20125;-73
2022/01/18 07:00:29;;;;;;;3.83;1.50;;;19.30;48.70;;;;;;6177451;28;20061;-73
2022/01/18 07:03:29;;;;;;;2.08;1.00;;;19.30;48.70;;;;;;6195893;28;20033;-73
2022/01/18 07:06:31;;;;;;;2.40;1.50;;;19.30;48.80;;;;;;6211331;28;20030;-73
2022/01/18 07:09:32;;;;;;;2.25;0.90;;;19.30;48.80;;;;;;6195008;28;20046;-73
2022/01/18 07:12:34;;;;;;;2.33;0.98;;;19.30;48.80;;;;;;6195497;28;20057;-73
2022/01/18 07:15:35;;;;;;;3.00;1.02;;;19.30;48.80;;;;;;6187858;28;20038;-73
2022/01/18 07:18:36;;;;;;;1.58;1.00;;;19.30;48.80;;;;;;6190435;28;20452;-73
2022/01/18 07:21:36;;;;;;;3.80;1.67;;;19.30;48.80;;;;;;6197290;28;20325;-73
2022/01/18 07:24:40;;;;;;;2.35;1.13;;;19.30;48.90;;;;;;6194340;28;20481;-73
2022/01/18 07:27:41;;;;;;;2.47;1.10;;;19.30;48.90;;;;;;6193192;28;20382;-73
2022/01/18 07:30:42;;;;;;;2.97;1.00;;;19.30;48.80;;;;;;6194240;28;20050;-73
2022/01/18 07:33:43;;;;;;;2.80;1.08;;;19.30;48.80;;;;;;6193372;28;20073;-72
2022/01/18 07:36:43;;;;;;;2.55;1.15;;;19.30;48.80;;;;;;6193879;28;20036;-72
2022/01/18 07:39:44;;;;;;;2.45;1.02;;;19.30;48.70;;;;;;6194002;28;20019;-70
2022/01/18 07:42:44;;;;;;;4.75;1.73;;;19.40;48.80;;;;;;6190975;28;20113;-73
2022/01/18 07:45:47;;;;;;;3.53;1.40;;;19.40;48.80;;;;;;6194253;28;20046;-73
2022/01/18 07:48:48;;;;;;;5.55;1.10;;;19.40;48.60;;;;;;6193678;28;20014;-73
2022/01/18 07:51:48;;;;;;;2.95;1.23;;;19.40;48.50;;;;;;6192291;28;20130;-74
2022/01/18 07:54:49;;;;;;;2.85;1.10;;;19.50;48.60;;;;;;6169531;28;20537;-73
2022/01/18 07:57:49;;;;;;;2.70;1.20;;;19.50;48.60;;;;;;6169054;28;20105;-74
2022/01/18 08:00:50;;;;;;;1.85;0.90;;;19.50;48.50;;;;;;6169968;28;20030;-74
2022/01/18 08:03:50;;;;;;;3.42;1.20;;;19.50;48.50;;;;;;6167863;28;20033;-75
2022/01/18 08:06:51;;;;;;;2.53;1.10;;;19.50;48.50;;;;;;6169494;28;20090;-74
2022/01/18 08:09:51;;;;;;;3.15;1.40;;;19.50;48.40;;;;;;6169236;28;20489;-73
2022/01/18 08:12:52;;;;;;;2.78;1.10;;;19.50;49.00;;;;;;6192716;28;20038;-74
2022/01/18 08:16:11;;;;;;;1.95;1.00;;;19.50;48.50;;;;;;6196860;28;20037;-73
2022/01/18 08:19:11;;;;;;;2.75;1.05;;;19.50;48.70;;;;;;6193768;28;20366;-74
2022/01/18 08:22:13;;;;;;;2.08;1.10;;;19.50;48.80;;;;;;6195762;28;20033;-74
2022/01/18 08:25:15;;;;;;;3.53;1.25;;;19.50;48.80;;;;;;6197919;28;20027;-74
2022/01/18 08:28:16;;;;;;;2.22;1.00;;;19.40;48.80;;;;;;6197279;28;20028;-73
2022/01/18 08:31:16;;;;;;;2.70;1.00;;;19.40;48.80;;;;;;6196422;28;20623;-73
2022/01/18 08:34:17;;;;;;;2.67;1.10;;;19.40;48.80;;;;;;6197326;28;20034;-74
2022/01/18 08:37:18;;;;;;;2.70;0.90;;;19.40;49.60;;;;;;6196049;28;20073;-73
2022/01/18 08:40:18;;;;;;;2.97;1.20;;;19.40;48.90;;;;;;6198228;28;20030;-72
2022/01/18 08:43:19;;;;;;;2.33;0.93;;;19.40;48.90;;;;;;6196717;28;20409;-73
2022/01/18 08:46:20;;;;;;;4.63;1.48;;;19.40;48.90;;;;;;6197413;28;20489;-72
2022/01/18 08:49:21;;;;;;;2.20;1.27;;;19.40;48.90;;;;;;6195706;28;20481;-72
2022/01/18 08:52:22;;;;;;;2.33;0.95;;;19.40;49.00;;;;;;6197710;28;20030;-73
2022/01/18 08:55:22;;;;;;;2.25;0.90;;;19.40;49.00;;;;;;6199809;28;20497;-73
2022/01/18 08:58:26;;;;;;;3.40;1.35;;;19.40;49.00;;;;;;6197259;28;20022;-73
2022/01/18 09:01:26;;;;;;;3.28;1.58;;;19.40;49.00;;;;;;6196471;28;20030;-74
2022/01/18 09:04:27;;;;;;;2.95;1.15;;;19.40;49.00;;;;;;6196938;28;20041;-74
2022/01/18 09:07:27;;;;;;;1.63;0.98;;;19.40;49.00;;;;;;6197585;28;20035;-73
2022/01/18 09:10:28;;;;;;;2.38;1.20;;;19.40;49.00;;;;;;6196796;28;20455;-73
2022/01/18 09:13:30;;;;;;;4.40;1.40;;;19.40;49.00;;;;;;6194729;28;20034;-72
2022/01/18 09:16:30;;;;;;;2.67;1.05;;;19.40;49.00;;;;;;6196999;28;20077;-73
2022/01/18 09:19:31;;;;;;;3.67;1.20;;;19.40;49.00;;;;;;6196387;28;20033;-73
2022/01/18 09:22:39;;;;;;;2.17;0.82;;;19.40;49.00;;;;;;6207991;28;20029;-73
2022/01/18 09:25:40;;;;;;;2.70;1.10;;;19.40;49.00;;;;;;6220459;28;20034;-73
2022/01/18 09:28:41;;;;;;;2.38;1.13;;;19.40;49.00;;;;;;6221140;28;20029;-74
2022/01/18 09:31:42;;;;;;;2.65;1.00;;;19.40;49.00;;;;;;6220458;28;20022;-73
2022/01/18 09:34:42;;;;;;;2.17;1.10;;;19.40;49.00;;;;;;6196874;28;20478;-73
2022/01/18 09:37:43;;;;;;;2.95;1.20;;;19.40;49.10;;;;;;6195945;28;20054;-73
2022/01/18 09:40:45;;;;;;;3.40;1.38;;;19.40;49.00;;;;;;6195532;28;20033;-74
2022/01/18 09:43:46;;;;;;;2.67;0.90;;;19.40;49.10;;;;;;6194952;28;20057;-73
2022/01/18 09:46:50;;;;;;;1.63;0.88;;;19.40;49.10;;;;;;6195662;28;20129;-73
2022/01/18 09:49:53;;;;;;;2.85;1.13;;;19.40;49.10;;;;;;6196117;28;20025;-73
2022/01/18 09:52:55;;;;;;;3.28;1.30;;;19.40;49.10;;;;;;6185597;28;20038;-73
2022/01/18 09:55:56;;;;;;;2.20;1.13;;;19.40;49.10;;;;;;6171204;28;20070;-74
2022/01/18 09:58:57;;;;;;;1.65;0.90;;;19.40;49.10;;;;;;6172538;28;20444;-73
2022/01/18 10:01:57;;;;;;;3.60;1.58;;;19.40;49.10;;;;;;6172042;28;20042;-72
2022/01/18 10:04:59;;;;;;;3.20;0.90;;;19.40;49.10;;;;;;6171301;28;20489;-74
2022/01/18 10:08:15;;;;;;;1.65;0.90;;;19.40;49.10;;;;;;6171843;28;20042;-74
2022/01/18 10:11:17;;;;;;;2.95;1.40;;;19.40;49.20;;;;;;6185131;28;20077;-73
2022/01/18 10:14:19;;;;;;;2.53;1.25;;;19.40;49.10;;;;;;6195214;28;20090;-73
2022/01/18 10:17:40;;;;;;;2.65;1.20;;;19.40;49.10;;;;;;6194886;28;20018;-74
2022/01/18 10:20:52;;;;;;;3.83;1.10;;;19.40;49.10;;;;;;6193998;28;20042;-69
2022/01/18 10:24:25;;;;;;;5.68;1.08;;;19.40;49.30;;;;;;6195716;28;20034;-70
2022/01/18 10:27:35;;;;;;;3.88;1.30;;;19.70;49.70;;;;;;6195576;28;20130;-69
2022/01/18 10:30:43;;;;;;;3.22;1.30;;;19.70;49.00;;;;;;6195292;28;20097;-69
2022/01/18 10:33:57;;;;;;;2.22;0.93;;;19.60;49.10;;;;;;6195189;28;20030;-69
2022/01/18 10:37:19;;;;;;;6.05;1.42;;;19.60;49.00;;;;;;6194199;28;20473;-69
2022/01/18 10:40:20;;;;;;;2.30;1.05;;;19.60;49.00;;;;;;6185251;28;20108;-69
2022/01/18 10:43:28;;;;;;;2.33;1.10;;;19.60;49.00;;;;;;6195283;28;20030;-68
2022/01/18 10:46:37;;;;;;;5.32;1.13;;;19.60;48.90;;;;;;6195277;28;20035;-69
2022/01/18 10:49:46;;;;;;;1.92;1.10;;;19.70;49.00;;;;;;6195100;28;20034;-69
2022/01/18 10:52:47;;;;;;;3.47;1.30;;;19.70;49.00;;;;;;6185810;28;20073;-69
2022/01/18 10:55:50;;;;;;;2.17;0.90;;;19.70;48.90;;;;;;6170558;28;20023;-69
2022/01/18 10:58:55;;;;;;;1.70;0.93;;;19.70;48.90;;;;;;6170887;28;20019;-69
2022/01/18 11:02:18;;;;;;;2.53;1.13;;;19.70;48.90;;;;;;6170713;28;20022;-69
2022/01/18 11:05:21;;;;;;;2.50;1.05;;;19.70;48.80;;;;;;6185411;28;20042;-69
2022/01/18 11:08:25;;;;;;;3.20;1.33;;;19.70;48.80;;;;;;6194711;28;20489;-69
2022/01/18 11:11:26;;;;;;;3.50;1.23;;;19.70;48.80;;;;;;6194408;28;20042;-69
2022/01/18 11:14:29;;;;;;;2.40;0.88;;;19.70;48.90;;;;;;6194485;28;20030;-69
2022/01/18 11:17:38;;;;;;;1.70;1.00;;;19.70;48.90;;;;;;6193249;28;20040;-69
2022/01/18 11:20:42;;;;;;;1.95;1.10;;;19.70;48.80;;;;;;6190748;28;20153;-69
2022/01/18 11:23:45;;;;;;;4.50;1.13;;;19.70;48.90;;;;;;6197814;28;20035;-69
2022/01/18 11:26:47;;;;;;;1.23;0.73;;;19.70;48.80;;;;;;6193415;28;20120;-68
2022/01/18 11:29:48;;;;;;;3.17;1.13;;;19.70;48.80;;;;;;6193527;28;20110;-69
2022/01/18 11:32:51;;;;;;;2.72;0.90;;;19.80;48.80;;;;;;6193569;28;20026;-69
2022/01/18 11:36:03;;;;;;;2.45;0.98;;;19.80;48.90;;;;;;6193314;28;20385;-69
2022/01/18 11:39:06;;;;;;;2.00;1.00;;;19.80;48.90;;;;;;6193409;28;20153;-69
2022/01/18 11:42:13;;;;;;;2.80;1.20;;;19.80;48.90;;;;;;6193850;28;20026;-68
2022/01/18 11:45:25;;;;;;;2.97;1.00;;;19.80;48.60;;;;;;6193658;28;20429;-70
2022/01/18 11:48:26;;;;;;;3.13;0.95;;;19.90;48.60;;;;;;6193216;28;20022;-71
2022/01/18 11:51:48;;;;;;;4.13;1.05;;;20.00;48.50;;;;;;6193814;28;20026;-70
2022/01/18 11:57:49;;;;;;;2.85;1.05;;;20.00;48.60;;;;;;6173568;28;20166;-68
2022/01/18 12:00:55;;;;;;;1.77;0.90;;;20.00;48.80;;;;;;6174247;28;20027;-69
2022/01/18 12:03:56;;;;;;;2.15;0.80;;;19.90;48.80;;;;;;6176963;28;20444;-69
2022/01/18 12:06:56;;;;;;;2.15;0.95;;;19.90;48.80;;;;;;6196343;28;20038;-68
2022/01/18 12:09:57;;;;;;;4.15;1.00;;;19.90;48.80;;;;;;6173091;28;20141;-69
2022/01/18 12:13:05;;;;;;;1.63;0.80;;;19.90;48.80;;;;;;6197888;28;20069;-69
2022/01/18 12:16:16;;;;;;;3.65;1.05;;;19.90;48.70;;;;;;6197056;28;20033;-69
2022/01/18 12:19:16;;;;;;;2.65;1.13;;;19.90;48.70;;;;;;6212744;28;20037;-69
2022/01/18 12:22:17;;;;;;;2.60;0.90;;;19.90;48.80;;;;;;6196601;28;20058;-70
2022/01/18 12:25:33;;;;;;;4.10;1.08;;;19.90;48.80;;;;;;6196994;28;20042;-69
2022/01/18 12:35:17;;;;;;;2.20;0.77;;;19.90;48.90;;;;;;6197547;28;20049;-70
2022/01/18 12:38:23;;;;;;;6.32;1.08;;;20.00;48.90;;;;;;6197937;28;20031;-70
2022/01/18 12:41:40;;;;;;;5.38;1.63;;;20.00;48.90;;;;;;6195881;28;20030;-69
2022/01/18 12:44:44;;;;;;;5.85;0.80;;;19.90;48.70;;;;;;6195600;28;20089;-70
2022/01/18 12:47:48;;;;;;;2.03;0.90;;;19.90;48.80;;;;;;6196040;28;20121;-70
2022/01/18 12:50:55;;;;;;;3.83;0.77;;;19.90;48.80;;;;;;6197048;28;20030;-70
2022/01/18 12:53:56;;;;;;;2.70;0.70;;;19.90;48.80;;;;;;6187334;28;20038;-70
2022/01/18 12:56:56;;;;;;;2.30;1.08;;;19.90;48.80;;;;;;6171936;28;20069;-70
2022/01/18 13:00:00;;;;;;;3.95;0.77;;;19.90;49.00;;;;;;6172321;28;20031;-70
2022/01/18 13:03:01;;;;;;;2.07;1.07;;;19.90;48.80;;;;;;6182736;28;20413;-69
2022/01/18 13:06:07;;;;;;;1.85;0.75;;;20.00;48.90;;;;;;6196679;28;20045;-70
2022/01/18 13:09:08;;;;;;;5.03;0.85;;;20.10;48.80;;;;;;6196351;28;20096;-69
2022/01/18 13:12:08;;;;;;;3.30;1.17;;;20.10;48.90;;;;;;6195938;28;20034;-71
2022/01/18 13:15:10;;;;;;;5.20;1.08;;;20.10;49.20;;;;;;6196541;28;20039;-70
2022/01/18 13:28:03;;;;;;;4.68;1.20;;;20.20;49.80;;;;;;6195483;28;20421;-69
2022/01/18 13:31:22;;;;;;;2.60;1.27;;;20.20;49.90;;;;;;6196148;28;20164;-69
2022/01/18 13:34:33;;;;;;;1.55;0.93;;;20.10;50.10;;;;;;6195151;28;20473;-69
2022/01/18 13:37:37;;;;;;;5.15;1.40;;;20.20;50.40;;;;;;6194944;28;20033;-69
2022/01/18 13:40:39;;;;;;;2.72;1.20;;;20.20;50.40;;;;;;6196002;28;20438;-69
2022/01/18 13:43:39;;;;;;;2.88;1.30;;;20.20;50.20;;;;;;6195863;28;20077;-69
2022/01/18 13:46:40;;;;;;;2.95;1.55;;;20.20;50.30;;;;;;6181552;28;20034;-69
2022/01/18 13:49:41;;;;;;;2.30;1.60;;;20.20;50.30;;;;;;6170720;28;20058;-69
2022/01/18 13:52:41;;;;;;;3.15;1.90;;;20.20;50.20;;;;;;6172875;28;20073;-69
2022/01/18 13:55:48;;;;;;;3.85;1.50;;;20.20;50.30;;;;;;6181775;28;20037;-69
2022/01/18 13:59:00;;;;;;;5.93;2.00;;;20.30;49.90;;;;;;6195838;28;20540;-70
2022/01/18 14:02:12;;;;;;;2.67;1.65;;;20.50;50.10;;;;;;6195225;28;20033;-69
2022/01/18 14:05:14;;;;;;;3.42;1.80;;;20.70;50.00;;;;;;6195225;28;20044;-69
2022/01/18 14:08:15;;;;;;;4.72;1.70;;;20.60;49.70;;;;;;6192915;28;20030;-69
2022/01/18 14:11:22;;;;;;;2.15;1.50;;;20.60;49.50;;;;;;6194584;28;20034;-69
2022/01/18 14:14:25;;;;;;;3.67;1.60;;;20.60;49.50;;;;;;6195169;28;20027;-69
2022/01/18 14:17:26;;;;;;;3.40;1.67;;;20.60;49.50;;;;;;6193907;28;20441;-69
2022/01/18 14:20:32;;;;;;;2.15;1.20;;;20.50;49.50;;;;;;6194532;28;20030;-69
2022/01/18 14:23:33;;;;;;;3.03;1.35;;;20.50;49.50;;;;;;6193805;28;20122;-69
2022/01/18 14:26:35;;;;;;;2.63;0.93;;;20.50;50.30;;;;;;6194419;28;20389;-69
2022/01/18 14:29:42;;;;;;;4.18;1.38;;;20.50;49.60;;;;;;6194383;28;20038;-69
2022/01/18 14:32:44;;;;;;;1.92;1.20;;;20.50;49.50;;;;;;6194773;28;20033;-69
2022/01/18 14:35:45;;;;;;;4.10;1.17;;;20.50;49.50;;;;;;6194563;28;20591;-69
2022/01/18 14:38:46;;;;;;;5.28;1.30;;;20.50;49.50;;;;;;6194201;28;20030;-69
2022/01/18 14:41:49;;;;;;;1.60;1.00;;;20.40;49.40;;;;;;6194446;28;20042;-69
2022/01/18 14:45:01;;;;;;;1.45;1.02;;;20.40;49.50;;;;;;6194552;28;20026;-69
2022/01/18 14:48:05;;;;;;;2.67;0.85;;;20.40;49.40;;;;;;6193994;28;20026;-70
2022/01/18 14:51:07;;;;;;;2.80;1.27;;;20.40;49.40;;;;;;6193978;28;20030;-71
2022/01/18 14:54:08;;;;;;;2.95;0.93;;;20.40;49.40;;;;;;6174262;28;20285;-71
2022/01/18 14:57:09;;;;;;;1.98;1.00;;;20.40;49.40;;;;;;6169643;28;20046;-69
2022/01/18 15:00:13;;;;;;;1.67;0.80;;;20.30;49.30;;;;;;6169843;28;20031;-69
2022/01/18 15:03:14;;;;;;;3.03;0.95;;;20.40;49.40;;;;;;6169723;28;20042;-69
2022/01/18 15:06:15;;;;;;;1.67;0.73;;;20.30;49.30;;;;;;6169411;28;20038;-71
2022/01/18 15:09:15;;;;;;;2.03;0.90;;;20.30;49.30;;;;;;6188882;28;20054;-69
2022/01/18 15:12:16;;;;;;;1.98;0.90;;;20.30;49.30;;;;;;6193705;28;20045;-69
2022/01/18 15:15:18;;;;;;;2.83;0.73;;;20.30;49.30;;;;;;6194059;28;20232;-69
2022/01/18 15:18:19;;;;;;;2.42;0.95;;;20.30;49.30;;;;;;6193064;28;20030;-69
2022/01/18 15:21:19;;;;;;;1.35;0.65;;;20.30;49.30;;;;;;6197680;28;20054;-70
2022/01/18 15:24:20;;;;;;;1.25;0.77;;;20.30;49.30;;;;;;6209271;28;20018;-69
2022/01/18 15:27:21;;;;;;;1.55;0.73;;;20.30;49.30;;;;;;6193266;28;20057;-69
2022/01/18 15:30:23;;;;;;;3.15;0.82;;;20.30;49.20;;;;;;6198121;28;20329;-69
2022/01/18 15:33:23;;;;;;;1.38;0.90;;;20.30;49.30;;;;;;6201535;28;20496;-69
2022/01/18 15:36:24;;;;;;;1.90;0.80;;;20.30;49.30;;;;;;6201434;28;20036;-69
2022/01/18 15:39:25;;;;;;;1.42;0.77;;;20.30;49.30;;;;;;6201364;28;20033;-69
2022/01/18 15:42:26;;;;;;;1.85;0.77;;;20.30;49.30;;;;;;6201312;28;20022;-69
2022/01/18 15:45:26;;;;;;;1.40;0.90;;;20.20;49.20;;;;;;6201608;28;20464;-69
2022/01/18 15:48:27;;;;;;;1.10;0.60;;;20.30;49.30;;;;;;6201153;28;20022;-69
2022/01/18 15:51:27;;;;;;;2.17;0.77;;;20.30;49.40;;;;;;6201386;28;20027;-70
2022/01/18 15:54:27;;;;;;;2.35;0.73;;;20.30;49.40;;;;;;6201515;28;20105;-69
2022/01/18 15:57:28;;;;;;;1.38;0.85;;;20.30;49.30;;;;;;6200702;28;20019;-70
2022/01/18 16:00:30;;;;;;;1.52;0.80;;;20.30;49.30;;;;;;6201172;28;20030;-69
2022/01/18 16:03:30;;;;;;;1.42;0.63;;;20.20;49.30;;;;;;6201376;28;20037;-70
2022/01/18 16:06:31;;;;;;;1.15;0.60;;;20.20;49.30;;;;;;6200703;28;20117;-70
2022/01/18 16:09:32;;;;;;;1.40;0.82;;;20.20;49.30;;;;;;6200623;28;20058;-70
2022/01/18 16:12:33;;;;;;;3.40;1.40;;;20.20;49.40;;;;;;6201075;28;20203;-69
2022/01/18 16:15:33;;;;;;;10.73;1.60;;;20.10;48.50;;;;;;6201121;28;20373;-70
2022/01/18 16:18:34;;;;;;;3.75;1.02;;;20.10;47.40;;;;;;6201114;28;20022;-69
2022/01/18 16:21:36;;;;;;;1.55;0.63;;;20.10;48.10;;;;;;6200260;28;20023;-70
2022/01/18 16:24:36;;;;;;;2.22;1.00;;;20.10;48.50;;;;;;6200281;28;20030;-70
2022/01/18 16:27:37;;;;;;;4.03;1.13;;;20.10;48.80;;;;;;6200558;28;20519;-69
2022/01/18 16:30:38;;;;;;;5.32;1.10;;;20.10;49.00;;;;;;6200938;28;20065;-70
2022/01/18 16:33:38;;;;;;;2.90;0.80;;;20.10;49.10;;;;;;6200831;28;20715;-70
2022/01/18 16:36:39;;;;;;;5.57;1.15;;;20.10;49.30;;;;;;6200674;28;20031;-70
2022/01/18 16:39:40;;;;;;;3.83;0.95;;;20.00;49.20;;;;;;6201322;28;20022;-70
2022/01/18 16:42:43;;;;;;;2.47;1.00;;;20.00;49.30;;;;;;6196698;28;20049;-70
2022/01/18 16:45:45;;;;;;;2.22;0.80;;;20.00;49.30;;;;;;6197044;28;20034;-70
2022/01/18 16:48:45;;;;;;;3.13;0.80;;;20.00;49.30;;;;;;6196788;28;20791;-70
2022/01/18 16:51:46;;;;;;;1.85;0.80;;;20.00;49.40;;;;;;6197035;28;20038;-70
2022/01/18 16:54:46;;;;;;;2.50;1.15;;;20.00;49.40;;;;;;6197244;28;20515;-70
2022/01/18 16:57:47;;;;;;;1.80;0.77;;;20.00;49.50;;;;;;6196190;28;20037;-71
2022/01/18 17:00:48;;;;;;;2.92;0.90;;;20.00;49.50;;;;;;6195999;28;20031;-69
2022/01/18 17:03:49;;;;;;;1.65;0.88;;;20.00;49.50;;;;;;6194710;28;20080;-70
2022/01/18 17:06:50;;;;;;;2.60;1.05;;;19.90;49.40;;;;;;6196256;28;20029;-70
2022/01/18 17:09:51;;;;;;;2.70;0.88;;;20.00;49.50;;;;;;6196000;28;20047;-70
2022/01/18 17:12:51;;;;;;;1.77;0.80;;;19.90;49.50;;;;;;6196150;28;20041;-70